sensor_id;sensor_type;location;lat;lon;timestamp;pressure;altitude;pressure_sealevel;temperature;humidity
37066;BME280;22981;43.080;25.550;2023-03-20T00:01:41;99941.55;;;4.93;64.37
37066;BME280;22981;43.080;25.550;2023-03-20T00:04:10;99946.07;;;4.81;64.35
37066;BME280;22981;43.080;25.550;2023-03-20T00:06:38;99947.61;;;4.67;64.48
37066;BME280;22981;43.080;25.550;2023-03-20T00:09:05;99947.12;;;4.59;64.66
37066;BME280;22981;43.080;25.550;2023-03-20T00:11:36;99945.44;;;4.58;64.66
37066;BME280;22981;43.080;25.550;2023-03-20T00:14:06;99936.83;;;4.60;64.60
37066;BME280;22981;43.080;25.550;2023-03-20T00:16:36;99933.86;;;4.59;64.50
37066;BME280;22981;43.080;25.550;2023-03-20T00:19:05;99925.41;;;4.60;64.47
37066;BME280;22981;43.080;25.550;2023-03-20T00:21:34;99924.90;;;4.60;64.46
37066;BME280;22981;43.080;25.550;2023-03-20T00:24:01;99923.75;;;4.59;64.50
37066;BME280;22981;43.080;25.550;2023-03-20T00:26:31;99917.28;;;4.57;64.59
37066;BME280;22981;43.080;25.550;2023-03-20T00:29:01;99923.91;;;4.57;64.66
37066;BME280;22981;43.080;25.550;2023-03-20T00:31:32;99920.95;;;4.48;64.58
37066;BME280;22981;43.080;25.550;2023-03-20T00:34:03;99923.63;;;4.32;64.85
37066;BME280;22981;43.080;25.550;2023-03-20T00:36:32;99912.70;;;4.22;65.14
37066;BME280;22981;43.080;25.550;2023-03-20T00:38:59;99909.91;;;4.24;65.21
37066;BME280;22981;43.080;25.550;2023-03-20T00:41:35;99908.41;;;4.25;65.15
37066;BME280;22981;43.080;25.550;2023-03-20T00:44:23;99915.03;;;4.25;65.12
37066;BME280;22981;43.080;25.550;2023-03-20T00:46:56;99916.03;;;4.24;65.18
37066;BME280;22981;43.080;25.550;2023-03-20T00:49:23;99911.38;;;4.26;65.00
37066;BME280;22981;43.080;25.550;2023-03-20T00:51:50;99907.91;;;4.26;64.91
37066;BME280;22981;43.080;25.550;2023-03-20T00:54:18;99911.70;;;4.23;64.91
37066;BME280;22981;43.080;25.550;2023-03-20T00:56:57;99907.58;;;4.21;64.96
37066;BME280;22981;43.080;25.550;2023-03-20T00:59:21;99900.78;;;4.18;65.05
37066;BME280;22981;43.080;25.550;2023-03-20T01:01:50;99899.13;;;4.17;65.12
37066;BME280;22981;43.080;25.550;2023-03-20T01:04:19;99902.61;;;4.18;65.17
37066;BME280;22981;43.080;25.550;2023-03-20T01:06:47;99898.13;;;4.18;65.28
37066;BME280;22981;43.080;25.550;2023-03-20T01:09:14;99894.47;;;4.23;65.30
37066;BME280;22981;43.080;25.550;2023-03-20T01:11:43;99896.30;;;4.27;65.26
37066;BME280;22981;43.080;25.550;2023-03-20T01:14:14;99885.70;;;4.27;65.25
37066;BME280;22981;43.080;25.550;2023-03-20T01:16:43;99889.84;;;4.25;65.32
37066;BME280;22981;43.080;25.550;2023-03-20T01:19:13;99888.53;;;4.17;65.27
37066;BME280;22981;43.080;25.550;2023-03-20T01:21:42;99884.25;;;4.04;65.38
37066;BME280;22981;43.080;25.550;2023-03-20T01:24:09;99885.58;;;3.96;65.37
37066;BME280;22981;43.080;25.550;2023-03-20T01:26:40;99882.75;;;3.85;65.47
37066;BME280;22981;43.080;25.550;2023-03-20T01:29:12;99880.28;;;3.80;65.66
37066;BME280;22981;43.080;25.550;2023-03-20T01:31:38;99878.95;;;3.80;65.61
37066;BME280;22981;43.080;25.550;2023-03-20T01:34:11;99876.48;;;3.78;65.50
37066;BME280;22981;43.080;25.550;2023-03-20T01:36:39;99882.42;;;3.80;65.48
37066;BME280;22981;43.080;25.550;2023-03-20T01:39:08;99877.81;;;3.82;65.47
37066;BME280;22981;43.080;25.550;2023-03-20T01:41:36;99874.48;;;3.84;65.45
37066;BME280;22981;43.080;25.550;2023-03-20T01:44:28;99877.45;;;3.85;65.45
37066;BME280;22981;43.080;25.550;2023-03-20T01:46:54;99876.98;;;3.86;65.44
37066;BME280;22981;43.080;25.550;2023-03-20T01:51:55;99875.80;;;3.80;65.52
37066;BME280;22981;43.080;25.550;2023-03-20T01:54:34;99872.66;;;3.76;65.54
37066;BME280;22981;43.080;25.550;2023-03-20T01:57:08;99881.45;;;3.69;65.60
37066;BME280;22981;43.080;25.550;2023-03-20T01:59:48;99882.43;;;3.51;65.68
37066;BME280;22981;43.080;25.550;2023-03-20T02:02:21;99884.04;;;3.32;66.00
37066;BME280;22981;43.080;25.550;2023-03-20T02:04:49;99880.88;;;3.24;66.29
37066;BME280;22981;43.080;25.550;2023-03-20T02:07:18;99881.71;;;3.29;66.30
37066;BME280;22981;43.080;25.550;2023-03-20T02:09:48;99885.19;;;3.34;66.20
37066;BME280;22981;43.080;25.550;2023-03-20T02:12:17;99883.88;;;3.38;66.06
37066;BME280;22981;43.080;25.550;2023-03-20T02:14:47;99878.44;;;3.39;65.98
37066;BME280;22981;43.080;25.550;2023-03-20T02:17:14;99881.23;;;3.38;65.94
37066;BME280;22981;43.080;25.550;2023-03-20T02:20:17;99885.05;;;3.35;65.96
37066;BME280;22981;43.080;25.550;2023-03-20T02:25:56;99873.64;;;3.35;65.81
37066;BME280;22981;43.080;25.550;2023-03-20T02:39:54;99874.95;;;3.31;65.66
37066;BME280;22981;43.080;25.550;2023-03-20T02:42:37;99877.24;;;3.30;65.68
37066;BME280;22981;43.080;25.550;2023-03-20T02:45:12;99879.56;;;3.29;65.77
37066;BME280;22981;43.080;25.550;2023-03-20T02:58:57;99878.34;;;3.03;66.17
37066;BME280;22981;43.080;25.550;2023-03-20T03:01:39;99869.07;;;2.98;66.37
37066;BME280;22981;43.080;25.550;2023-03-20T03:04:16;99864.62;;;3.03;66.32
37066;BME280;22981;43.080;25.550;2023-03-20T03:06:46;99866.95;;;3.06;66.21
37066;BME280;22981;43.080;25.550;2023-03-20T03:09:17;99868.94;;;3.04;66.20
37066;BME280;22981;43.080;25.550;2023-03-20T03:11:54;99871.58;;;3.00;66.27
37066;BME280;22981;43.080;25.550;2023-03-20T03:14:40;99872.38;;;2.96;66.39
37066;BME280;22981;43.080;25.550;2023-03-20T03:17:10;99862.79;;;2.91;66.38
37066;BME280;22981;43.080;25.550;2023-03-20T03:19:42;99861.09;;;2.86;66.43
37066;BME280;22981;43.080;25.550;2023-03-20T03:22:10;99858.45;;;2.86;66.50
37066;BME280;22981;43.080;25.550;2023-03-20T03:24:46;99860.11;;;2.83;66.46
37066;BME280;22981;43.080;25.550;2023-03-20T03:29:56;99860.11;;;2.83;66.55
37066;BME280;22981;43.080;25.550;2023-03-20T03:32:45;99855.98;;;2.85;66.47
37066;BME280;22981;43.080;25.550;2023-03-20T03:35:17;99857.30;;;2.85;66.42
37066;BME280;22981;43.080;25.550;2023-03-20T03:43:37;99853.12;;;2.70;66.44
37066;BME280;22981;43.080;25.550;2023-03-20T03:46:06;99848.15;;;2.67;66.60
37066;BME280;22981;43.080;25.550;2023-03-20T03:48:49;99851.12;;;2.68;66.68
37066;BME280;22981;43.080;25.550;2023-03-20T03:51:25;99848.98;;;2.71;66.64
37066;BME280;22981;43.080;25.550;2023-03-20T03:54:05;99842.70;;;2.72;66.56
37066;BME280;22981;43.080;25.550;2023-03-20T03:56:34;99846.84;;;2.71;66.58
37066;BME280;22981;43.080;25.550;2023-03-20T03:59:10;99849.48;;;2.71;66.55
37066;BME280;22981;43.080;25.550;2023-03-20T04:01:37;99851.31;;;2.70;66.57
37066;BME280;22981;43.080;25.550;2023-03-20T04:04:09;99850.80;;;2.67;66.62
37066;BME280;22981;43.080;25.550;2023-03-20T04:06:38;99854.22;;;2.59;66.62
37066;BME280;22981;43.080;25.550;2023-03-20T04:09:08;99852.69;;;2.44;66.82
37066;BME280;22981;43.080;25.550;2023-03-20T04:11:36;99854.07;;;2.31;67.03
37066;BME280;22981;43.080;25.550;2023-03-20T04:14:03;99858.01;;;2.26;67.30
37066;BME280;22981;43.080;25.550;2023-03-20T04:16:31;99859.72;;;2.32;67.34
37066;BME280;22981;43.080;25.550;2023-03-20T04:18:59;99854.61;;;2.38;67.23
37066;BME280;22981;43.080;25.550;2023-03-20T04:21:26;99861.39;;;2.37;67.08
37066;BME280;22981;43.080;25.550;2023-03-20T04:23:54;99856.87;;;2.29;67.21
37066;BME280;22981;43.080;25.550;2023-03-20T04:26:22;99862.19;;;2.33;67.27
37066;BME280;22981;43.080;25.550;2023-03-20T04:28:49;99858.91;;;2.39;67.13
37066;BME280;22981;43.080;25.550;2023-03-20T04:31:17;99860.94;;;2.45;67.00
37066;BME280;22981;43.080;25.550;2023-03-20T04:33:45;99862.28;;;2.49;66.88
37066;BME280;22981;43.080;25.550;2023-03-20T04:36:12;99851.21;;;2.50;66.84
37066;BME280;22981;43.080;25.550;2023-03-20T04:38:40;99862.28;;;2.49;66.84
37066;BME280;22981;43.080;25.550;2023-03-20T04:41:07;99864.92;;;2.49;66.87
37066;BME280;22981;43.080;25.550;2023-03-20T04:43:35;99866.73;;;2.49;66.95
37066;BME280;22981;43.080;25.550;2023-03-20T04:46:03;99864.75;;;2.51;66.92
37066;BME280;22981;43.080;25.550;2023-03-20T04:48:30;99866.41;;;2.52;66.83
37066;BME280;22981;43.080;25.550;2023-03-20T04:50:58;99870.84;;;2.47;66.83
37066;BME280;22981;43.080;25.550;2023-03-20T04:53:25;99873.28;;;2.37;66.98
37066;BME280;22981;43.080;25.550;2023-03-20T04:55:53;99879.66;;;2.30;67.17
37066;BME280;22981;43.080;25.550;2023-03-20T04:58:21;99883.11;;;2.26;67.30
37066;BME280;22981;43.080;25.550;2023-03-20T05:00:49;99889.24;;;2.31;67.36
37066;BME280;22981;43.080;25.550;2023-03-20T05:03:16;99883.16;;;2.35;67.32
37066;BME280;22981;43.080;25.550;2023-03-20T05:05:44;99887.17;;;2.43;67.33
37066;BME280;22981;43.080;25.550;2023-03-20T05:08:12;99882.10;;;2.49;67.24
37066;BME280;22981;43.080;25.550;2023-03-20T05:10:39;99882.78;;;2.56;67.20
37066;BME280;22981;43.080;25.550;2023-03-20T05:13:07;99880.33;;;2.58;67.11
37066;BME280;22981;43.080;25.550;2023-03-20T05:15:34;99883.28;;;2.55;67.15
37066;BME280;22981;43.080;25.550;2023-03-20T05:18:02;99889.23;;;2.53;67.31
37066;BME280;22981;43.080;25.550;2023-03-20T05:20:29;99894.66;;;2.51;67.45
37066;BME280;22981;43.080;25.550;2023-03-20T05:22:57;99889.36;;;2.51;67.54
37066;BME280;22981;43.080;25.550;2023-03-20T05:25:25;99889.73;;;2.61;67.67
37066;BME280;22981;43.080;25.550;2023-03-20T05:27:53;99892.11;;;2.72;67.53
37066;BME280;22981;43.080;25.550;2023-03-20T05:30:20;99889.68;;;2.79;67.47
37066;BME280;22981;43.080;25.550;2023-03-20T05:32:51;99896.98;;;2.89;67.38
37066;BME280;22981;43.080;25.550;2023-03-20T05:35:19;99891.55;;;2.98;67.27
37066;BME280;22981;43.080;25.550;2023-03-20T05:37:46;99904.00;;;3.10;67.03
37066;BME280;22981;43.080;25.550;2023-03-20T05:40:15;99898.88;;;3.17;66.99
37066;BME280;22981;43.080;25.550;2023-03-20T05:42:44;99898.25;;;3.23;66.97
37066;BME280;22981;43.080;25.550;2023-03-20T05:45:12;99897.95;;;3.34;66.96
37066;BME280;22981;43.080;25.550;2023-03-20T05:47:41;99895.30;;;3.46;66.86
37066;BME280;22981;43.080;25.550;2023-03-20T05:50:09;99896.14;;;3.55;66.86
37066;BME280;22981;43.080;25.550;2023-03-20T05:52:37;99904.78;;;3.73;66.82
37066;BME280;22981;43.080;25.550;2023-03-20T05:55:05;99893.84;;;3.89;66.67
37066;BME280;22981;43.080;25.550;2023-03-20T05:57:33;99899.97;;;4.01;66.47
37066;BME280;22981;43.080;25.550;2023-03-20T06:00:00;99898.31;;;4.13;66.45
37066;BME280;22981;43.080;25.550;2023-03-20T06:02:28;99896.97;;;4.33;66.38
37066;BME280;22981;43.080;25.550;2023-03-20T06:04:55;99901.23;;;4.50;66.27
37066;BME280;22981;43.080;25.550;2023-03-20T06:07:23;99892.89;;;4.66;66.05
37066;BME280;22981;43.080;25.550;2023-03-20T06:09:51;99889.69;;;4.78;65.87
37066;BME280;22981;43.080;25.550;2023-03-20T06:12:19;99885.36;;;4.86;65.80
37066;BME280;22981;43.080;25.550;2023-03-20T06:14:46;99889.45;;;4.96;65.66
37066;BME280;22981;43.080;25.550;2023-03-20T06:17:14;99888.06;;;5.09;65.59
37066;BME280;22981;43.080;25.550;2023-03-20T06:19:42;99885.86;;;5.20;65.49
37066;BME280;22981;43.080;25.550;2023-03-20T06:22:09;99882.95;;;5.34;65.34
37066;BME280;22981;43.080;25.550;2023-03-20T06:24:37;99890.66;;;5.48;65.23
37066;BME280;22981;43.080;25.550;2023-03-20T06:27:04;99883.24;;;5.66;65.08
37066;BME280;22981;43.080;25.550;2023-03-20T06:29:32;99883.59;;;5.82;64.98
37066;BME280;22981;43.080;25.550;2023-03-20T06:31:59;99886.66;;;5.98;64.85
37066;BME280;22981;43.080;25.550;2023-03-20T06:34:27;99884.05;;;6.13;64.91
37066;BME280;22981;43.080;25.550;2023-03-20T06:36:55;99886.09;;;6.40;64.83
37066;BME280;22981;43.080;25.550;2023-03-20T06:39:23;99877.16;;;6.52;64.49
37066;BME280;22981;43.080;25.550;2023-03-20T06:41:50;99873.25;;;6.59;64.43
37066;BME280;22981;43.080;25.550;2023-03-20T06:44:18;99872.14;;;6.68;64.52
37066;BME280;22981;43.080;25.550;2023-03-20T06:46:45;99869.44;;;6.72;64.57
37066;BME280;22981;43.080;25.550;2023-03-20T06:49:13;99871.33;;;6.82;64.58
37066;BME280;22981;43.080;25.550;2023-03-20T06:51:40;99870.67;;;6.95;64.56
37066;BME280;22981;43.080;25.550;2023-03-20T06:54:08;99862.64;;;7.10;64.44
37066;BME280;22981;43.080;25.550;2023-03-20T06:56:36;99870.05;;;7.29;64.37
37066;BME280;22981;43.080;25.550;2023-03-20T06:59:03;99870.86;;;7.40;64.07
37066;BME280;22981;43.080;25.550;2023-03-20T07:01:31;99870.38;;;7.51;63.99
37066;BME280;22981;43.080;25.550;2023-03-20T07:03:59;99869.10;;;7.69;63.87
37066;BME280;22981;43.080;25.550;2023-03-20T07:06:26;99870.04;;;7.83;63.69
37066;BME280;22981;43.080;25.550;2023-03-20T07:08:54;99869.91;;;8.01;63.53
37066;BME280;22981;43.080;25.550;2023-03-20T07:11:22;99869.53;;;8.22;63.35
37066;BME280;22981;43.080;25.550;2023-03-20T07:13:49;99869.63;;;8.46;63.24
37066;BME280;22981;43.080;25.550;2023-03-20T07:16:17;99856.41;;;8.66;62.92
37066;BME280;22981;43.080;25.550;2023-03-20T07:18:44;99856.39;;;8.83;62.50
37066;BME280;22981;43.080;25.550;2023-03-20T07:21:17;99848.95;;;8.96;62.34
37066;BME280;22981;43.080;25.550;2023-03-20T07:23:45;99851.67;;;9.16;62.24
37066;BME280;22981;43.080;25.550;2023-03-20T07:26:12;99845.98;;;9.39;61.90
37066;BME280;22981;43.080;25.550;2023-03-20T07:28:41;99850.02;;;9.59;61.58
37066;BME280;22981;43.080;25.550;2023-03-20T07:31:22;99846.55;;;9.78;61.36
37066;BME280;22981;43.080;25.550;2023-03-20T07:33:50;99843.56;;;9.97;61.16
37066;BME280;22981;43.080;25.550;2023-03-20T07:36:18;99839.65;;;10.13;60.88
37066;BME280;22981;43.080;25.550;2023-03-20T07:38:45;99840.18;;;10.25;60.46
37066;BME280;22981;43.080;25.550;2023-03-20T07:41:13;99841.71;;;10.37;60.32
37066;BME280;22981;43.080;25.550;2023-03-20T07:43:40;99846.92;;;10.55;60.30
37066;BME280;22981;43.080;25.550;2023-03-20T07:46:08;99840.37;;;10.73;60.15
37066;BME280;22981;43.080;25.550;2023-03-20T07:48:36;99844.84;;;10.92;59.70
37066;BME280;22981;43.080;25.550;2023-03-20T07:51:04;99845.78;;;11.11;59.36
37066;BME280;22981;43.080;25.550;2023-03-20T07:53:31;99840.39;;;11.34;59.47
37066;BME280;22981;43.080;25.550;2023-03-20T07:55:59;99837.63;;;11.63;59.13
37066;BME280;22981;43.080;25.550;2023-03-20T07:58:26;99840.59;;;11.86;58.54
37066;BME280;22981;43.080;25.550;2023-03-20T08:00:56;99837.34;;;12.02;58.11
37066;BME280;22981;43.080;25.550;2023-03-20T08:03:24;99842.30;;;12.24;57.93
37066;BME280;22981;43.080;25.550;2023-03-20T08:05:53;99838.33;;;12.51;57.40
37066;BME280;22981;43.080;25.550;2023-03-20T08:08:21;99830.70;;;12.76;56.89
37066;BME280;22981;43.080;25.550;2023-03-20T08:10:48;99831.66;;;13.00;56.24
37066;BME280;22981;43.080;25.550;2023-03-20T08:13:16;99833.85;;;13.21;55.70
37066;BME280;22981;43.080;25.550;2023-03-20T08:15:45;99826.45;;;13.35;55.24
37066;BME280;22981;43.080;25.550;2023-03-20T08:18:12;99828.89;;;13.46;55.04
37066;BME280;22981;43.080;25.550;2023-03-20T08:20:41;99823.55;;;13.58;54.86
37066;BME280;22981;43.080;25.550;2023-03-20T08:23:08;99830.64;;;13.73;54.17
37066;BME280;22981;43.080;25.550;2023-03-20T08:25:36;99831.08;;;13.91;54.08
37066;BME280;22981;43.080;25.550;2023-03-20T08:28:04;99831.28;;;14.10;53.62
37066;BME280;22981;43.080;25.550;2023-03-20T08:30:31;99829.06;;;14.31;53.33
37066;BME280;22981;43.080;25.550;2023-03-20T08:32:59;99831.47;;;14.53;53.06
37066;BME280;22981;43.080;25.550;2023-03-20T08:35:27;99823.86;;;14.76;52.52
37066;BME280;22981;43.080;25.550;2023-03-20T08:37:55;99823.46;;;14.96;51.93
37066;BME280;22981;43.080;25.550;2023-03-20T08:40:22;99822.73;;;15.15;51.28
37066;BME280;22981;43.080;25.550;2023-03-20T08:42:50;99814.55;;;15.24;50.94
37066;BME280;22981;43.080;25.550;2023-03-20T08:45:17;99817.90;;;15.45;51.07
37066;BME280;22981;43.080;25.550;2023-03-20T08:47:48;99807.83;;;15.69;50.84
37066;BME280;22981;43.080;25.550;2023-03-20T08:50:17;99816.88;;;15.94;50.48
37066;BME280;22981;43.080;25.550;2023-03-20T08:52:45;99814.98;;;16.12;49.98
37066;BME280;22981;43.080;25.550;2023-03-20T08:55:13;99815.98;;;16.25;49.73
37066;BME280;22981;43.080;25.550;2023-03-20T08:57:42;99811.42;;;16.47;49.48
37066;BME280;22981;43.080;25.550;2023-03-20T09:00:11;99811.58;;;16.58;48.57
37066;BME280;22981;43.080;25.550;2023-03-20T09:02:40;99810.30;;;16.65;48.41
37066;BME280;22981;43.080;25.550;2023-03-20T09:05:08;99805.61;;;16.75;48.44
37066;BME280;22981;43.080;25.550;2023-03-20T09:07:37;99803.87;;;16.88;48.20
37066;BME280;22981;43.080;25.550;2023-03-20T09:10:05;99802.13;;;17.04;47.97
37066;BME280;22981;43.080;25.550;2023-03-20T09:12:32;99803.35;;;17.16;47.94
37066;BME280;22981;43.080;25.550;2023-03-20T09:15:01;99798.80;;;17.19;47.78
37066;BME280;22981;43.080;25.550;2023-03-20T09:17:29;99796.94;;;17.22;47.86
37066;BME280;22981;43.080;25.550;2023-03-20T09:19:57;99791.48;;;17.19;47.55
37066;BME280;22981;43.080;25.550;2023-03-20T09:22:25;99791.30;;;17.26;47.61
37066;BME280;22981;43.080;25.550;2023-03-20T09:24:52;99787.64;;;17.40;47.60
37066;BME280;22981;43.080;25.550;2023-03-20T09:27:20;99781.26;;;17.53;47.11
37066;BME280;22981;43.080;25.550;2023-03-20T09:29:47;99781.94;;;17.71;46.73
37066;BME280;22981;43.080;25.550;2023-03-20T09:32:15;99781.56;;;17.89;45.92
37066;BME280;22981;43.080;25.550;2023-03-20T09:34:43;99774.91;;;18.07;45.63
37066;BME280;22981;43.080;25.550;2023-03-20T09:37:10;99779.91;;;18.28;44.99
37066;BME280;22981;43.080;25.550;2023-03-20T09:39:38;99776.22;;;18.42;44.60
37066;BME280;22981;43.080;25.550;2023-03-20T09:42:23;99779.23;;;18.50;44.10
37066;BME280;22981;43.080;25.550;2023-03-20T09:45:00;99779.00;;;18.62;43.37
37066;BME280;22981;43.080;25.550;2023-03-20T09:47:44;99769.61;;;18.78;43.21
37066;BME280;22981;43.080;25.550;2023-03-20T09:50:21;99768.55;;;18.86;42.90
37066;BME280;22981;43.080;25.550;2023-03-20T09:55:24;99757.76;;;19.07;42.73
37066;BME280;22981;43.080;25.550;2023-03-20T09:57:56;99759.38;;;19.13;42.38
37066;BME280;22981;43.080;25.550;2023-03-20T10:00:27;99753.96;;;19.18;42.15
37066;BME280;22981;43.080;25.550;2023-03-20T10:03:00;99754.79;;;19.26;41.86
37066;BME280;22981;43.080;25.550;2023-03-20T10:05:41;99755.89;;;19.38;42.18
37066;BME280;22981;43.080;25.550;2023-03-20T10:08:11;99751.28;;;19.51;42.05
37066;BME280;22981;43.080;25.550;2023-03-20T10:18:56;99736.63;;;19.88;40.95
37066;BME280;22981;43.080;25.550;2023-03-20T10:21:26;99727.37;;;19.96;41.13
37066;BME280;22981;43.080;25.550;2023-03-20T10:24:05;99724.92;;;20.00;41.00
37066;BME280;22981;43.080;25.550;2023-03-20T10:26:35;99724.63;;;20.09;40.66
37066;BME280;22981;43.080;25.550;2023-03-20T10:29:18;99719.17;;;20.14;40.43
37066;BME280;22981;43.080;25.550;2023-03-20T10:31:42;99720.80;;;20.15;39.93
37066;BME280;22981;43.080;25.550;2023-03-20T10:42:34;99706.14;;;20.04;40.01
37066;BME280;22981;43.080;25.550;2023-03-20T10:47:49;99704.33;;;19.71;40.43
37066;BME280;22981;43.080;25.550;2023-03-20T10:50:27;99707.86;;;19.36;40.67
37066;BME280;22981;43.080;25.550;2023-03-20T10:52:50;99706.20;;;19.07;40.87
37066;BME280;22981;43.080;25.550;2023-03-20T10:55:22;99706.98;;;18.97;40.98
37066;BME280;22981;43.080;25.550;2023-03-20T10:58:00;99700.21;;;19.10;40.93
37066;BME280;22981;43.080;25.550;2023-03-20T11:00:25;99700.80;;;19.32;40.55
37066;BME280;22981;43.080;25.550;2023-03-20T11:02:53;99705.14;;;19.36;40.34
37066;BME280;22981;43.080;25.550;2023-03-20T11:05:33;99696.97;;;19.43;40.40
37066;BME280;22981;43.080;25.550;2023-03-20T11:08:08;99686.13;;;19.61;40.11
37066;BME280;22981;43.080;25.550;2023-03-20T11:10:34;99683.69;;;19.70;39.66
37066;BME280;22981;43.080;25.550;2023-03-20T11:13:29;99681.20;;;19.81;39.72
37066;BME280;22981;43.080;25.550;2023-03-20T11:15:54;99673.86;;;19.89;39.50
37066;BME280;22981;43.080;25.550;2023-03-20T11:18:25;99662.95;;;20.02;39.46
37066;BME280;22981;43.080;25.550;2023-03-20T11:20:57;99665.63;;;20.17;38.67
37066;BME280;22981;43.080;25.550;2023-03-20T11:23:31;99659.30;;;20.35;38.01
37066;BME280;22981;43.080;25.550;2023-03-20T11:33:36;99637.58;;;20.76;36.91
37066;BME280;22981;43.080;25.550;2023-03-20T11:36:00;99640.08;;;20.70;36.67
37066;BME280;22981;43.080;25.550;2023-03-20T11:38:29;99645.30;;;20.59;36.53
37066;BME280;22981;43.080;25.550;2023-03-20T11:40:57;99635.86;;;20.44;35.92
37066;BME280;22981;43.080;25.550;2023-03-20T11:43:26;99631.81;;;20.39;36.22
37066;BME280;22981;43.080;25.550;2023-03-20T11:45:56;99629.06;;;20.44;36.88
37066;BME280;22981;43.080;25.550;2023-03-20T11:48:36;99626.05;;;20.45;36.75
37066;BME280;22981;43.080;25.550;2023-03-20T11:51:13;99628.25;;;20.43;36.75
37066;BME280;22981;43.080;25.550;2023-03-20T11:56:27;99619.28;;;20.43;36.43
37066;BME280;22981;43.080;25.550;2023-03-20T11:58:59;99616.53;;;20.45;36.36
37066;BME280;22981;43.080;25.550;2023-03-20T12:01:28;99605.94;;;20.49;36.15
37066;BME280;22981;43.080;25.550;2023-03-20T12:04:06;99607.31;;;20.41;35.98
37066;BME280;22981;43.080;25.550;2023-03-20T12:06:51;99607.13;;;20.25;36.16
37066;BME280;22981;43.080;25.550;2023-03-20T12:09:28;99611.55;;;20.08;36.41
37066;BME280;22981;43.080;25.550;2023-03-20T12:12:04;99607.01;;;19.96;36.27
37066;BME280;22981;43.080;25.550;2023-03-20T12:17:29;99603.21;;;19.87;36.67
37066;BME280;22981;43.080;25.550;2023-03-20T12:20:02;99595.84;;;19.97;36.30
37066;BME280;22981;43.080;25.550;2023-03-20T12:22:36;99594.95;;;20.12;36.12
37066;BME280;22981;43.080;25.550;2023-03-20T12:27:48;99592.13;;;20.33;34.76
37066;BME280;22981;43.080;25.550;2023-03-20T12:30:29;99589.93;;;20.37;34.41
37066;BME280;22981;43.080;25.550;2023-03-20T12:33:10;99587.43;;;20.46;34.14
37066;BME280;22981;43.080;25.550;2023-03-20T12:35:40;99585.20;;;20.61;33.93
37066;BME280;22981;43.080;25.550;2023-03-20T12:38:13;99582.69;;;20.69;33.61
37066;BME280;22981;43.080;25.550;2023-03-20T12:40:40;99576.64;;;20.78;33.37
37066;BME280;22981;43.080;25.550;2023-03-20T12:43:26;99581.55;;;20.75;33.22
37066;BME280;22981;43.080;25.550;2023-03-20T12:46:02;99571.64;;;20.56;33.69
37066;BME280;22981;43.080;25.550;2023-03-20T12:48:36;99582.62;;;20.33;33.85
37066;BME280;22981;43.080;25.550;2023-03-20T12:59:13;99576.92;;;20.34;34.59
37066;BME280;22981;43.080;25.550;2023-03-20T13:01:44;99571.70;;;20.43;34.86
37066;BME280;22981;43.080;25.550;2023-03-20T13:07:04;99571.45;;;20.39;35.18
37066;BME280;22981;43.080;25.550;2023-03-20T13:10:07;99568.72;;;20.39;35.69
37066;BME280;22981;43.080;25.550;2023-03-20T13:15:46;99559.46;;;20.43;35.90
37066;BME280;22981;43.080;25.550;2023-03-20T13:18:23;99556.41;;;20.47;36.03
37066;BME280;22981;43.080;25.550;2023-03-20T13:20:56;99548.55;;;20.45;35.98
37066;BME280;22981;43.080;25.550;2023-03-20T13:23:38;99546.13;;;20.41;36.19
37066;BME280;22981;43.080;25.550;2023-03-20T13:26:35;99546.20;;;20.31;36.28
37066;BME280;22981;43.080;25.550;2023-03-20T13:42:56;99533.31;;;20.52;35.36
37066;BME280;22981;43.080;25.550;2023-03-20T13:45:40;99531.37;;;20.55;35.30
37066;BME280;22981;43.080;25.550;2023-03-20T13:48:21;99529.45;;;20.58;35.43
37066;BME280;22981;43.080;25.550;2023-03-20T13:51:00;99525.12;;;20.55;35.62
37066;BME280;22981;43.080;25.550;2023-03-20T13:53:47;99527.09;;;20.41;35.73
37066;BME280;22981;43.080;25.550;2023-03-20T13:56:22;99522.25;;;20.33;35.80
37066;BME280;22981;43.080;25.550;2023-03-20T14:04:15;99530.05;;;20.03;34.80
37066;BME280;22981;43.080;25.550;2023-03-20T14:06:46;99531.99;;;19.95;33.86
37066;BME280;22981;43.080;25.550;2023-03-20T14:09:37;99529.05;;;19.86;34.16
37066;BME280;22981;43.080;25.550;2023-03-20T14:12:09;99525.30;;;19.80;33.68
37066;BME280;22981;43.080;25.550;2023-03-20T14:14:58;99521.51;;;19.75;33.13
37066;BME280;22981;43.080;25.550;2023-03-20T14:17:30;99522.34;;;19.68;33.03
37066;BME280;22981;43.080;25.550;2023-03-20T14:20:08;99525.38;;;19.62;33.17
37066;BME280;22981;43.080;25.550;2023-03-20T14:22:34;99517.77;;;19.54;32.96
37066;BME280;22981;43.080;25.550;2023-03-20T14:25:07;99511.27;;;19.49;33.04
37066;BME280;22981;43.080;25.550;2023-03-20T14:33:00;99502.89;;;19.31;32.80
37066;BME280;22981;43.080;25.550;2023-03-20T14:35:28;99502.67;;;19.19;32.65
37066;BME280;22981;43.080;25.550;2023-03-20T14:40:46;99503.73;;;19.18;32.55
37066;BME280;22981;43.080;25.550;2023-03-20T14:43:19;99495.33;;;19.17;32.80
37066;BME280;22981;43.080;25.550;2023-03-20T14:45:51;99497.78;;;19.16;32.93
37066;BME280;22981;43.080;25.550;2023-03-20T14:48:34;99492.66;;;19.07;32.95
37066;BME280;22981;43.080;25.550;2023-03-20T14:53:34;99495.95;;;18.89;32.64
37066;BME280;22981;43.080;25.550;2023-03-20T14:56:12;99497.58;;;18.85;32.74
37066;BME280;22981;43.080;25.550;2023-03-20T14:58:52;99486.46;;;18.81;32.96
37066;BME280;22981;43.080;25.550;2023-03-20T15:01:25;99485.12;;;18.76;33.03
37066;BME280;22981;43.080;25.550;2023-03-20T15:03:55;99481.58;;;18.70;33.01
37066;BME280;22981;43.080;25.550;2023-03-20T15:06:26;99477.48;;;18.63;33.20
37066;BME280;22981;43.080;25.550;2023-03-20T15:09:06;99470.18;;;18.56;33.21
37066;BME280;22981;43.080;25.550;2023-03-20T15:11:34;99479.12;;;18.51;33.20
37066;BME280;22981;43.080;25.550;2023-03-20T15:14:05;99472.88;;;18.45;33.31